createdAt,value
2023-03-29T00:04:59.569Z,94195.19
2023-03-29T00:10:01.808Z,94167.16
2023-03-29T00:15:06.546Z,94149.91
2023-03-29T00:20:08.977Z,94162.63
2023-03-29T00:25:11.439Z,94153.31
2023-03-29T00:30:14.543Z,94121.22
2023-03-29T00:35:16.211Z,94120.00
2023-03-29T00:40:18.413Z,94113.59
2023-03-29T00:45:23.137Z,94120.88
2023-03-29T00:50:28.529Z,94101.53
2023-03-29T00:55:35.029Z,94112.34
2023-03-29T01:00:44.372Z,94109.97
2023-03-29T01:05:51.442Z,94123.84
2023-03-29T01:10:56.652Z,94110.53
2023-03-29T01:16:01.097Z,94102.31
2023-03-29T01:21:20.316Z,94112.16
2023-03-29T01:26:31.170Z,94102.88
2023-03-29T01:31:38.391Z,94084.50
2023-03-29T01:36:47.183Z,94080.94
2023-03-29T01:42:00.780Z,94085.13
2023-03-29T01:47:11.127Z,94065.72
2023-03-29T01:52:17.976Z,94068.13
2023-03-29T01:57:21.294Z,94070.19
2023-03-29T02:02:26.552Z,94074.44
2023-03-29T02:07:30.453Z,94071.09
2023-03-29T02:12:32.808Z,94055.41
2023-03-29T02:17:35.697Z,94052.81
2023-03-29T02:22:46.457Z,94055.25
2023-03-29T02:27:48.526Z,94057.50
2023-03-29T02:32:58.216Z,94024.31
2023-03-29T02:38:02.674Z,94008.38
2023-03-29T02:43:07.368Z,93999.50
2023-03-29T02:48:14.440Z,93989.81
2023-03-29T02:53:18.901Z,93972.06
2023-03-29T02:58:20.743Z,93962.53
2023-03-29T03:03:23.699Z,93954.78
2023-03-29T03:08:25.250Z,93960.88
2023-03-29T03:13:26.692Z,93966.19
2023-03-29T03:18:29.566Z,93952.69
2023-03-29T03:23:31.958Z,93959.25
2023-03-29T03:28:33.448Z,93956.47
2023-03-29T03:33:36.216Z,93967.00
2023-03-29T03:38:38.327Z,93969.78
2023-03-29T03:43:39.765Z,93961.88
2023-03-29T03:48:42.616Z,93962.47
2023-03-29T03:53:44.284Z,93966.91
2023-03-29T03:58:45.836Z,93961.78
2023-03-29T04:03:48.733Z,93956.19
2023-03-29T04:08:50.228Z,93958.78
2023-03-29T04:13:51.761Z,93966.91
2023-03-29T04:18:54.648Z,93968.16
2023-03-29T04:23:56.146Z,93966.66
2023-03-29T04:28:57.623Z,93947.97
2023-03-29T04:34:00.597Z,93949.16
2023-03-29T04:39:02.206Z,93950.50
2023-03-29T04:44:03.798Z,93963.94
2023-03-29T04:49:07.215Z,93959.09
2023-03-29T04:54:08.869Z,93942.53
2023-03-29T04:59:10.529Z,93958.16
2023-03-29T05:04:13.391Z,93956.28
2023-03-29T05:09:14.901Z,93958.63
2023-03-29T05:14:16.354Z,93955.69
2023-03-29T05:19:19.181Z,93954.22
2023-03-29T05:24:21.077Z,93963.81
2023-03-29T05:29:22.723Z,93961.81
2023-03-29T05:34:25.580Z,93952.84
2023-03-29T05:39:27.083Z,93959.16
2023-03-29T05:44:28.552Z,93959.47
2023-03-29T05:49:31.440Z,93972.41
2023-03-29T05:54:32.922Z,93965.38
2023-03-29T05:59:34.390Z,93967.19
2023-03-29T06:04:37.494Z,93970.22
2023-03-29T06:09:39.118Z,93961.09
2023-03-29T06:14:40.569Z,93966.50
2023-03-29T06:19:43.384Z,93963.38
2023-03-29T06:24:44.909Z,93964.75
2023-03-29T06:29:46.388Z,93970.31
2023-03-29T06:34:49.163Z,93972.69
2023-03-29T06:39:53.200Z,93974.38
2023-03-29T06:44:54.860Z,93974.41
2023-03-29T06:49:57.742Z,93979.66
2023-03-29T06:54:59.210Z,93992.81
2023-03-29T07:00:00.709Z,93994.25
2023-03-29T07:05:03.785Z,93991.47
2023-03-29T07:10:06.470Z,93992.97
2023-03-29T07:15:08.882Z,93997.91
2023-03-29T07:20:12.525Z,93995.94
2023-03-29T07:25:14.083Z,93991.34
2023-03-29T07:30:21.324Z,94002.84
2023-03-29T07:35:25.189Z,94008.41
2023-03-29T07:40:26.745Z,94004.78
2023-03-29T07:45:28.734Z,94012.16
2023-03-29T07:50:31.674Z,94011.81
2023-03-29T07:55:33.215Z,94012.66
2023-03-29T08:00:34.700Z,94017.97
2023-03-29T08:05:41.810Z,94015.53
2023-03-29T08:10:43.663Z,94024.78
2023-03-29T08:15:45.152Z,94026.13
2023-03-29T08:20:47.980Z,94018.72
2023-03-29T08:25:49.540Z,94012.63
2023-03-29T08:30:51.015Z,94021.59
2023-03-29T08:35:53.959Z,94029.25
2023-03-29T08:40:56.041Z,94024.94
2023-03-29T08:46:07.298Z,94020.25
2023-03-29T08:51:19.334Z,94019.34
2023-03-29T08:56:23.824Z,94021.94
2023-03-29T09:01:30.286Z,94022.00
2023-03-29T09:06:33.239Z,94025.28
2023-03-29T09:11:48.251Z,94019.88
2023-03-29T09:16:56.725Z,94012.16
2023-03-29T09:22:09.106Z,94019.34
2023-03-29T09:27:16.617Z,94008.44
2023-03-29T09:32:21.334Z,94000.41
2023-03-29T09:37:31.860Z,94003.41
2023-03-29T09:42:33.689Z,94002.41
2023-03-29T09:47:39.351Z,93995.47
2023-03-29T09:52:42.432Z,93990.84
2023-03-29T09:57:45.157Z,93990.75
2023-03-29T10:02:53.864Z,93986.13
2023-03-29T10:08:00.457Z,93979.56
2023-03-29T10:13:06.563Z,93983.25
2023-03-29T10:18:13.249Z,93978.63
2023-03-29T10:23:18.530Z,93985.59
2023-03-29T10:28:21.451Z,93986.50
2023-03-29T10:33:24.890Z,93981.06
2023-03-29T10:38:29.432Z,93976.91
2023-03-29T10:43:36.200Z,93977.63
2023-03-29T10:48:37.894Z,93984.63
2023-03-29T10:53:41.566Z,93983.09
2023-03-29T10:59:00.853Z,93970.88
2023-03-29T11:04:19.375Z,93975.69
2023-03-29T11:09:31.504Z,93965.47
2023-03-29T11:14:41.374Z,93958.56
2023-03-29T11:19:55.930Z,93962.50
2023-03-29T11:25:17.463Z,93968.63
2023-03-29T11:30:25.309Z,93957.63
2023-03-29T11:35:37.123Z,93956.56
2023-03-29T11:40:50.241Z,93951.06
2023-03-29T11:45:55.399Z,93950.31
2023-03-29T11:51:03.424Z,93948.22
2023-03-29T11:56:11.822Z,93941.16
2023-03-29T12:01:17.460Z,93926.25
2023-03-29T12:06:23.449Z,93932.00
2023-03-29T12:11:33.293Z,93925.59
2023-03-29T12:16:39.624Z,93915.88
2023-03-29T12:21:42.302Z,93925.44
2023-03-29T12:27:01.096Z,93923.16
2023-03-29T12:32:19.772Z,93923.75
2023-03-29T12:37:37.271Z,93926.00
2023-03-29T12:42:46.661Z,93915.66
2023-03-29T12:47:50.786Z,93916.47
2023-03-29T12:52:52.575Z,93910.19
2023-03-29T12:58:02.344Z,93907.94
2023-03-29T13:03:18.525Z,93909.16
2023-03-29T13:08:25.981Z,93904.66
2023-03-29T13:13:32.956Z,93907.75
2023-03-29T13:19:13.826Z,93901.63
2023-03-29T13:24:29.807Z,93898.38
2023-03-29T13:29:49.883Z,93903.63
2023-03-29T13:34:57.422Z,93914.44
2023-03-29T13:39:58.988Z,93912.22
2023-03-29T13:45:13.549Z,93906.94
2023-03-29T13:50:19.400Z,93901.63
2023-03-29T13:55:25.014Z,93892.13
2023-03-29T14:00:33.595Z,93893.28
2023-03-29T14:05:37.677Z,93897.19
2023-03-29T14:10:41.432Z,93898.19
2023-03-29T14:15:48.287Z,93908.25
2023-03-29T14:20:52.787Z,93937.66
2023-03-29T14:25:54.206Z,93927.06
2023-03-29T14:30:57.022Z,93900.13
2023-03-29T14:36:02.137Z,93911.09
2023-03-29T14:41:04.317Z,93893.94
2023-03-29T14:46:08.032Z,93911.78
2023-03-29T14:51:10.213Z,93907.91
2023-03-29T14:56:15.006Z,93894.47
2023-03-29T15:01:20.346Z,93869.91
2023-03-29T15:06:22.995Z,93868.16
2023-03-29T15:11:27.420Z,93862.69
2023-03-29T15:16:31.110Z,93868.50
2023-03-29T15:21:35.481Z,93873.50
2023-03-29T15:26:37.832Z,93863.22
2023-03-29T15:31:41.956Z,93854.97
2023-03-29T15:36:45.618Z,93840.72
2023-03-29T15:41:50.464Z,93837.88
2023-03-29T15:46:53.613Z,93836.16
2023-03-29T15:51:55.209Z,93828.34
2023-03-29T15:57:00.771Z,93815.09
2023-03-29T16:02:05.304Z,93807.31
2023-03-29T16:07:10.155Z,93817.03
2023-03-29T16:12:13.205Z,93814.53
2023-03-29T16:17:16.102Z,93808.16
2023-03-29T16:22:17.614Z,93817.22
2023-03-29T16:27:19.110Z,93818.91
2023-03-29T16:32:22.074Z,93816.44
2023-03-29T16:37:23.886Z,93812.53
2023-03-29T16:42:25.507Z,93815.44
2023-03-29T16:47:28.439Z,93820.00
2023-03-29T16:52:30.012Z,93826.28
2023-03-29T16:57:31.600Z,93820.34
2023-03-29T17:02:34.527Z,93819.25
2023-03-29T17:07:36.156Z,93806.34
2023-03-29T17:12:38.287Z,93810.88
2023-03-29T17:17:41.479Z,93806.00
2023-03-29T17:22:43.077Z,93795.00
2023-03-29T17:27:45.027Z,93800.72
2023-03-29T17:32:47.997Z,93806.47
2023-03-29T17:37:49.620Z,93819.09
2023-03-29T17:42:51.168Z,93819.09
2023-03-29T17:47:54.085Z,93842.16
2023-03-29T17:52:55.621Z,93842.31
2023-03-29T17:57:57.052Z,93851.13
2023-03-29T18:02:59.859Z,93850.50
2023-03-29T18:08:01.681Z,93826.22
2023-03-29T18:13:03.215Z,93833.13
2023-03-29T18:18:06.104Z,93835.16
2023-03-29T18:23:07.621Z,93838.88
2023-03-29T18:28:09.284Z,93838.28
2023-03-29T18:33:12.169Z,93847.06
2023-03-29T18:38:13.839Z,93839.28
2023-03-29T18:43:15.849Z,93838.91
2023-03-29T18:48:18.811Z,93837.25
2023-03-29T18:53:20.741Z,93836.66
2023-03-29T18:58:22.325Z,93839.28
2023-03-29T19:03:25.254Z,93837.06
2023-03-29T19:08:26.971Z,93837.06
2023-03-29T19:13:28.421Z,93834.22
2023-03-29T19:18:31.370Z,93835.84
2023-03-29T19:23:33.335Z,93835.84
2023-03-29T19:28:34.901Z,93825.06
2023-03-29T19:33:37.689Z,93821.78
2023-03-29T19:38:39.141Z,93809.16
2023-03-29T19:43:40.690Z,93804.50
2023-03-29T19:48:43.727Z,93782.53
2023-03-29T19:53:45.169Z,93777.66
2023-03-29T19:58:46.729Z,93796.16
2023-03-29T20:03:50.355Z,93803.06
2023-03-29T20:08:52.028Z,93778.84
2023-03-29T20:13:53.456Z,93777.41
2023-03-29T20:18:56.327Z,93784.78
2023-03-29T20:23:57.855Z,93785.16
2023-03-29T20:28:59.373Z,93787.41
2023-03-29T20:34:02.205Z,93767.03
2023-03-29T20:39:04.095Z,93768.66
2023-03-29T20:44:05.646Z,93769.47
2023-03-29T20:49:08.444Z,93765.00
2023-03-29T20:54:09.916Z,93753.59
2023-03-29T20:59:11.446Z,93753.22
2023-03-29T21:04:14.247Z,93739.38
2023-03-29T21:09:16.430Z,93743.44
2023-03-29T21:14:18.079Z,93745.88
2023-03-29T21:19:20.854Z,93743.25
2023-03-29T21:24:22.470Z,93733.47
2023-03-29T21:29:24.239Z,93742.22
2023-03-29T21:34:27.074Z,93723.91
2023-03-29T21:39:28.779Z,93725.94
2023-03-29T21:44:31.962Z,93715.75
2023-03-29T21:49:36.453Z,93715.56
2023-03-29T21:54:37.946Z,93716.81
2023-03-29T21:59:39.503Z,93714.56
2023-03-29T22:04:42.301Z,93702.75
2023-03-29T22:09:44.118Z,93700.09
2023-03-29T22:14:45.839Z,93707.63
2023-03-29T22:19:48.614Z,93695.44
2023-03-29T22:24:51.922Z,93686.47
2023-03-29T22:29:53.329Z,93689.91
2023-03-29T22:34:56.168Z,93694.38
2023-03-29T22:39:57.759Z,93686.44
2023-03-29T22:44:59.280Z,93688.69
2023-03-29T22:50:02.237Z,93680.13
2023-03-29T22:55:04.292Z,93685.44
2023-03-29T23:00:07.080Z,93682.38
2023-03-29T23:05:10.086Z,93692.97
2023-03-29T23:10:11.906Z,93679.97
2023-03-29T23:15:13.576Z,93681.97
2023-03-29T23:20:16.482Z,93686.66
2023-03-29T23:25:17.973Z,93677.09
2023-03-29T23:30:19.863Z,93682.56
2023-03-29T23:35:22.792Z,93678.31
2023-03-29T23:40:24.502Z,93675.88
2023-03-29T23:45:26.809Z,93681.75
2023-03-29T23:50:29.636Z,93671.19
2023-03-29T23:55:31.046Z,93671.41
